sensor_id;sensor_type;location;lat;lon;timestamp;P1;durP1;ratioP1;P2;durP2;ratioP2
30149;SDS011;16962;48.646;9.026;2023-06-04T00:01:36;11.73;;;8.32;;
30149;SDS011;16962;48.646;9.026;2023-06-04T00:04:24;12.30;;;8.07;;
30149;SDS011;16962;48.646;9.026;2023-06-04T00:07:12;15.02;;;8.10;;
30149;SDS011;16962;48.646;9.026;2023-06-04T00:10:00;13.63;;;9.10;;
30149;SDS011;16962;48.646;9.026;2023-06-04T00:12:47;13.77;;;8.55;;
30149;SDS011;16962;48.646;9.026;2023-06-04T00:15:36;11.68;;;7.85;;
30149;SDS011;16962;48.646;9.026;2023-06-04T00:18:23;14.60;;;8.40;;
30149;SDS011;16962;48.646;9.026;2023-06-04T00:21:10;15.77;;;8.70;;
30149;SDS011;16962;48.646;9.026;2023-06-04T00:23:58;15.80;;;8.82;;
30149;SDS011;16962;48.646;9.026;2023-06-04T00:26:47;11.23;;;7.75;;
30149;SDS011;16962;48.646;9.026;2023-06-04T00:29:36;13.65;;;7.90;;
30149;SDS011;16962;48.646;9.026;2023-06-04T00:32:26;12.32;;;7.68;;
30149;SDS011;16962;48.646;9.026;2023-06-04T00:35:13;14.57;;;7.70;;
30149;SDS011;16962;48.646;9.026;2023-06-04T00:38:01;14.52;;;8.23;;
30149;SDS011;16962;48.646;9.026;2023-06-04T00:40:49;10.20;;;7.57;;
30149;SDS011;16962;48.646;9.026;2023-06-04T00:43:36;12.20;;;8.15;;
30149;SDS011;16962;48.646;9.026;2023-06-04T00:46:27;14.45;;;7.63;;
30149;SDS011;16962;48.646;9.026;2023-06-04T00:49:15;13.73;;;8.20;;
30149;SDS011;16962;48.646;9.026;2023-06-04T00:52:02;13.38;;;8.02;;
30149;SDS011;16962;48.646;9.026;2023-06-04T00:54:50;14.63;;;8.70;;
30149;SDS011;16962;48.646;9.026;2023-06-04T00:57:38;12.40;;;8.20;;
30149;SDS011;16962;48.646;9.026;2023-06-04T01:00:26;13.75;;;8.07;;
30149;SDS011;16962;48.646;9.026;2023-06-04T01:06:25;12.63;;;8.43;;
30149;SDS011;16962;48.646;9.026;2023-06-04T01:09:20;13.25;;;7.20;;
30149;SDS011;16962;48.646;9.026;2023-06-04T01:12:08;11.82;;;7.55;;
30149;SDS011;16962;48.646;9.026;2023-06-04T01:14:56;14.35;;;7.25;;
30149;SDS011;16962;48.646;9.026;2023-06-04T01:17:44;15.65;;;7.30;;
30149;SDS011;16962;48.646;9.026;2023-06-04T01:20:42;13.55;;;7.25;;
30149;SDS011;16962;48.646;9.026;2023-06-04T01:23:46;10.90;;;6.88;;
30149;SDS011;16962;48.646;9.026;2023-06-04T01:26:45;13.32;;;7.38;;
30149;SDS011;16962;48.646;9.026;2023-06-04T01:29:33;10.63;;;7.13;;
30149;SDS011;16962;48.646;9.026;2023-06-04T01:32:23;10.43;;;7.13;;
30149;SDS011;16962;48.646;9.026;2023-06-04T01:35:11;14.30;;;7.80;;
30149;SDS011;16962;48.646;9.026;2023-06-04T01:37:59;18.10;;;7.88;;
30149;SDS011;16962;48.646;9.026;2023-06-04T01:40:47;13.20;;;7.60;;
30149;SDS011;16962;48.646;9.026;2023-06-04T01:43:34;13.48;;;7.43;;
30149;SDS011;16962;48.646;9.026;2023-06-04T01:46:22;12.10;;;7.18;;
30149;SDS011;16962;48.646;9.026;2023-06-04T01:49:09;13.93;;;7.18;;
30149;SDS011;16962;48.646;9.026;2023-06-04T01:51:57;13.38;;;7.25;;
30149;SDS011;16962;48.646;9.026;2023-06-04T01:54:45;10.32;;;7.65;;
30149;SDS011;16962;48.646;9.026;2023-06-04T01:57:32;9.10;;;6.80;;
30149;SDS011;16962;48.646;9.026;2023-06-04T02:00:21;11.55;;;7.28;;
30149;SDS011;16962;48.646;9.026;2023-06-04T02:03:08;13.65;;;7.25;;
30149;SDS011;16962;48.646;9.026;2023-06-04T02:05:55;14.18;;;7.18;;
30149;SDS011;16962;48.646;9.026;2023-06-04T02:08:43;9.82;;;6.63;;
30149;SDS011;16962;48.646;9.026;2023-06-04T02:11:32;10.15;;;6.63;;
30149;SDS011;16962;48.646;9.026;2023-06-04T02:14:20;11.48;;;7.03;;
30149;SDS011;16962;48.646;9.026;2023-06-04T02:17:07;11.15;;;7.57;;
30149;SDS011;16962;48.646;9.026;2023-06-04T02:20:03;15.48;;;7.50;;
30149;SDS011;16962;48.646;9.026;2023-06-04T02:22:57;12.15;;;7.50;;
30149;SDS011;16962;48.646;9.026;2023-06-04T02:25:44;14.18;;;7.60;;
30149;SDS011;16962;48.646;9.026;2023-06-04T02:28:32;13.82;;;7.82;;
30149;SDS011;16962;48.646;9.026;2023-06-04T02:31:20;12.07;;;7.75;;
30149;SDS011;16962;48.646;9.026;2023-06-04T02:34:08;10.18;;;7.13;;
30149;SDS011;16962;48.646;9.026;2023-06-04T02:36:55;15.45;;;7.97;;
30149;SDS011;16962;48.646;9.026;2023-06-04T02:39:43;13.10;;;8.65;;
30149;SDS011;16962;48.646;9.026;2023-06-04T02:42:30;13.07;;;8.45;;
30149;SDS011;16962;48.646;9.026;2023-06-04T02:45:18;13.15;;;8.23;;
30149;SDS011;16962;48.646;9.026;2023-06-04T02:48:05;16.13;;;9.35;;
30149;SDS011;16962;48.646;9.026;2023-06-04T02:50:53;14.05;;;8.35;;
30149;SDS011;16962;48.646;9.026;2023-06-04T02:53:42;16.65;;;8.50;;
30149;SDS011;16962;48.646;9.026;2023-06-04T02:56:30;12.93;;;7.85;;
30149;SDS011;16962;48.646;9.026;2023-06-04T02:59:19;10.60;;;7.97;;
30149;SDS011;16962;48.646;9.026;2023-06-04T03:02:06;12.25;;;7.82;;
30149;SDS011;16962;48.646;9.026;2023-06-04T03:04:54;11.40;;;7.47;;
30149;SDS011;16962;48.646;9.026;2023-06-04T03:07:42;12.60;;;7.07;;
30149;SDS011;16962;48.646;9.026;2023-06-04T03:10:33;14.95;;;9.27;;
30149;SDS011;16962;48.646;9.026;2023-06-04T03:13:20;18.10;;;9.18;;
30149;SDS011;16962;48.646;9.026;2023-06-04T03:16:07;17.42;;;10.27;;
30149;SDS011;16962;48.646;9.026;2023-06-04T03:18:57;16.75;;;10.23;;
30149;SDS011;16962;48.646;9.026;2023-06-04T03:21:44;19.98;;;10.68;;
30149;SDS011;16962;48.646;9.026;2023-06-04T03:24:33;14.43;;;10.02;;
30149;SDS011;16962;48.646;9.026;2023-06-04T03:27:25;13.55;;;9.15;;
30149;SDS011;16962;48.646;9.026;2023-06-04T03:30:13;12.30;;;8.43;;
30149;SDS011;16962;48.646;9.026;2023-06-04T03:33:00;13.63;;;8.90;;
30149;SDS011;16962;48.646;9.026;2023-06-04T03:35:50;14.88;;;9.30;;
30149;SDS011;16962;48.646;9.026;2023-06-04T03:38:39;12.05;;;8.27;;
30149;SDS011;16962;48.646;9.026;2023-06-04T03:41:26;15.85;;;9.25;;
30149;SDS011;16962;48.646;9.026;2023-06-04T03:44:13;13.95;;;9.32;;
30149;SDS011;16962;48.646;9.026;2023-06-04T03:47:02;13.43;;;9.57;;
30149;SDS011;16962;48.646;9.026;2023-06-04T03:49:49;13.88;;;9.07;;
30149;SDS011;16962;48.646;9.026;2023-06-04T03:52:36;15.63;;;8.10;;
30149;SDS011;16962;48.646;9.026;2023-06-04T03:55:24;12.57;;;8.27;;
30149;SDS011;16962;48.646;9.026;2023-06-04T03:58:11;12.27;;;7.65;;
30149;SDS011;16962;48.646;9.026;2023-06-04T04:00:58;15.95;;;9.23;;
30149;SDS011;16962;48.646;9.026;2023-06-04T04:03:51;19.90;;;10.38;;
30149;SDS011;16962;48.646;9.026;2023-06-04T04:07:18;14.70;;;9.20;;
30149;SDS011;16962;48.646;9.026;2023-06-04T04:10:07;15.85;;;8.85;;
30149;SDS011;16962;48.646;9.026;2023-06-04T04:12:55;11.82;;;8.05;;
30149;SDS011;16962;48.646;9.026;2023-06-04T04:15:45;15.93;;;8.38;;
30149;SDS011;16962;48.646;9.026;2023-06-04T04:18:32;10.90;;;8.50;;
30149;SDS011;16962;48.646;9.026;2023-06-04T04:21:21;17.65;;;9.32;;
30149;SDS011;16962;48.646;9.026;2023-06-04T04:24:09;16.23;;;10.13;;
30149;SDS011;16962;48.646;9.026;2023-06-04T04:26:57;15.77;;;9.50;;
30149;SDS011;16962;48.646;9.026;2023-06-04T04:29:45;12.25;;;9.07;;
30149;SDS011;16962;48.646;9.026;2023-06-04T04:32:34;15.52;;;9.60;;
30149;SDS011;16962;48.646;9.026;2023-06-04T04:35:25;14.82;;;8.65;;
30149;SDS011;16962;48.646;9.026;2023-06-04T04:38:12;13.90;;;7.32;;
30149;SDS011;16962;48.646;9.026;2023-06-04T04:41:00;11.35;;;6.22;;
30149;SDS011;16962;48.646;9.026;2023-06-04T04:43:48;13.45;;;6.43;;
30149;SDS011;16962;48.646;9.026;2023-06-04T04:46:35;13.85;;;8.48;;
30149;SDS011;16962;48.646;9.026;2023-06-04T04:49:22;19.58;;;8.90;;
30149;SDS011;16962;48.646;9.026;2023-06-04T04:52:11;18.08;;;8.95;;
30149;SDS011;16962;48.646;9.026;2023-06-04T04:54:58;16.95;;;8.73;;
30149;SDS011;16962;48.646;9.026;2023-06-04T04:57:45;13.73;;;8.75;;
30149;SDS011;16962;48.646;9.026;2023-06-04T05:00:32;18.95;;;7.68;;
30149;SDS011;16962;48.646;9.026;2023-06-04T05:03:20;8.52;;;5.65;;
30149;SDS011;16962;48.646;9.026;2023-06-04T05:06:10;10.43;;;5.53;;
30149;SDS011;16962;48.646;9.026;2023-06-04T05:09:02;6.88;;;4.80;;
30149;SDS011;16962;48.646;9.026;2023-06-04T05:11:50;7.68;;;5.03;;
30149;SDS011;16962;48.646;9.026;2023-06-04T05:14:39;8.88;;;4.90;;
30149;SDS011;16962;48.646;9.026;2023-06-04T05:17:26;12.23;;;5.22;;
30149;SDS011;16962;48.646;9.026;2023-06-04T05:20:19;7.57;;;4.55;;
30149;SDS011;16962;48.646;9.026;2023-06-04T05:23:07;9.15;;;5.00;;
30149;SDS011;16962;48.646;9.026;2023-06-04T05:25:55;10.20;;;5.18;;
30149;SDS011;16962;48.646;9.026;2023-06-04T05:28:44;13.32;;;8.35;;
30149;SDS011;16962;48.646;9.026;2023-06-04T05:31:32;13.02;;;8.60;;
30149;SDS011;16962;48.646;9.026;2023-06-04T05:34:21;12.73;;;7.60;;
30149;SDS011;16962;48.646;9.026;2023-06-04T05:37:09;8.27;;;5.22;;
30149;SDS011;16962;48.646;9.026;2023-06-04T05:40:03;14.60;;;7.78;;
30149;SDS011;16962;48.646;9.026;2023-06-04T05:42:52;10.40;;;7.85;;
30149;SDS011;16962;48.646;9.026;2023-06-04T05:45:42;9.27;;;6.50;;
30149;SDS011;16962;48.646;9.026;2023-06-04T05:48:29;10.00;;;6.55;;
30149;SDS011;16962;48.646;9.026;2023-06-04T05:51:16;9.63;;;6.38;;
30149;SDS011;16962;48.646;9.026;2023-06-04T05:54:04;8.73;;;5.95;;
30149;SDS011;16962;48.646;9.026;2023-06-04T05:56:51;8.43;;;4.80;;
30149;SDS011;16962;48.646;9.026;2023-06-04T05:59:39;7.80;;;4.65;;
30149;SDS011;16962;48.646;9.026;2023-06-04T06:02:30;8.13;;;3.88;;
30149;SDS011;16962;48.646;9.026;2023-06-04T06:05:21;9.05;;;4.40;;
30149;SDS011;16962;48.646;9.026;2023-06-04T06:08:09;6.13;;;3.38;;
30149;SDS011;16962;48.646;9.026;2023-06-04T06:10:56;7.03;;;3.90;;
30149;SDS011;16962;48.646;9.026;2023-06-04T06:13:43;6.97;;;4.20;;
30149;SDS011;16962;48.646;9.026;2023-06-04T06:16:31;7.30;;;4.00;;
30149;SDS011;16962;48.646;9.026;2023-06-04T06:19:19;8.98;;;4.22;;
30149;SDS011;16962;48.646;9.026;2023-06-04T06:22:09;7.30;;;4.30;;
30149;SDS011;16962;48.646;9.026;2023-06-04T06:24:57;6.68;;;4.32;;
30149;SDS011;16962;48.646;9.026;2023-06-04T06:27:45;11.20;;;4.07;;
30149;SDS011;16962;48.646;9.026;2023-06-04T06:30:35;10.43;;;3.88;;
30149;SDS011;16962;48.646;9.026;2023-06-04T06:33:23;6.15;;;3.83;;
30149;SDS011;16962;48.646;9.026;2023-06-04T06:36:10;4.45;;;3.05;;
30149;SDS011;16962;48.646;9.026;2023-06-04T06:39:07;8.65;;;3.65;;
30149;SDS011;16962;48.646;9.026;2023-06-04T06:41:59;8.63;;;3.30;;
30149;SDS011;16962;48.646;9.026;2023-06-04T06:44:46;8.35;;;3.30;;
30149;SDS011;16962;48.646;9.026;2023-06-04T06:47:34;6.53;;;3.40;;
30149;SDS011;16962;48.646;9.026;2023-06-04T06:50:21;6.25;;;3.15;;
30149;SDS011;16962;48.646;9.026;2023-06-04T06:53:09;11.40;;;3.67;;
30149;SDS011;16962;48.646;9.026;2023-06-04T06:55:56;6.82;;;3.15;;
30149;SDS011;16962;48.646;9.026;2023-06-04T06:58:44;7.43;;;3.05;;
30149;SDS011;16962;48.646;9.026;2023-06-04T07:01:32;7.55;;;3.10;;
30149;SDS011;16962;48.646;9.026;2023-06-04T07:04:20;6.13;;;2.50;;
30149;SDS011;16962;48.646;9.026;2023-06-04T07:07:07;4.20;;;3.10;;
30149;SDS011;16962;48.646;9.026;2023-06-04T07:09:55;4.60;;;2.95;;
30149;SDS011;16962;48.646;9.026;2023-06-04T07:12:42;4.53;;;2.65;;
30149;SDS011;16962;48.646;9.026;2023-06-04T07:15:32;6.55;;;3.10;;
30149;SDS011;16962;48.646;9.026;2023-06-04T07:18:22;9.70;;;2.97;;
30149;SDS011;16962;48.646;9.026;2023-06-04T07:21:09;5.78;;;3.10;;
30149;SDS011;16962;48.646;9.026;2023-06-04T07:23:56;13.55;;;2.83;;
30149;SDS011;16962;48.646;9.026;2023-06-04T07:26:49;6.93;;;3.15;;
30149;SDS011;16962;48.646;9.026;2023-06-04T07:29:40;3.90;;;2.50;;
30149;SDS011;16962;48.646;9.026;2023-06-04T07:32:29;8.73;;;2.85;;
30149;SDS011;16962;48.646;9.026;2023-06-04T07:35:18;7.10;;;2.92;;
30149;SDS011;16962;48.646;9.026;2023-06-04T07:38:12;4.65;;;2.42;;
30149;SDS011;16962;48.646;9.026;2023-06-04T07:41:00;6.57;;;2.83;;
30149;SDS011;16962;48.646;9.026;2023-06-04T07:43:47;3.97;;;2.42;;
30149;SDS011;16962;48.646;9.026;2023-06-04T07:46:34;4.18;;;2.33;;
30149;SDS011;16962;48.646;9.026;2023-06-04T07:49:22;6.15;;;2.40;;
30149;SDS011;16962;48.646;9.026;2023-06-04T07:52:12;10.77;;;2.47;;
30149;SDS011;16962;48.646;9.026;2023-06-04T07:55:01;7.10;;;2.55;;
30149;SDS011;16962;48.646;9.026;2023-06-04T07:57:50;4.50;;;2.80;;
30149;SDS011;16962;48.646;9.026;2023-06-04T08:00:38;7.57;;;3.05;;
30149;SDS011;16962;48.646;9.026;2023-06-04T08:03:28;4.90;;;2.72;;
30149;SDS011;16962;48.646;9.026;2023-06-04T08:06:15;4.57;;;2.55;;
30149;SDS011;16962;48.646;9.026;2023-06-04T08:09:03;8.23;;;2.80;;
30149;SDS011;16962;48.646;9.026;2023-06-04T08:11:50;5.53;;;2.83;;
30149;SDS011;16962;48.646;9.026;2023-06-04T08:14:48;5.25;;;2.60;;
30149;SDS011;16962;48.646;9.026;2023-06-04T08:17:37;5.65;;;2.95;;
30149;SDS011;16962;48.646;9.026;2023-06-04T08:20:43;7.35;;;2.63;;
30149;SDS011;16962;48.646;9.026;2023-06-04T08:23:31;7.95;;;2.85;;
30149;SDS011;16962;48.646;9.026;2023-06-04T08:26:19;5.30;;;2.83;;
30149;SDS011;16962;48.646;9.026;2023-06-04T08:29:11;3.92;;;2.63;;
30149;SDS011;16962;48.646;9.026;2023-06-04T08:31:59;4.88;;;2.67;;
30149;SDS011;16962;48.646;9.026;2023-06-04T08:34:47;6.95;;;3.00;;
30149;SDS011;16962;48.646;9.026;2023-06-04T08:37:41;5.35;;;2.60;;
30149;SDS011;16962;48.646;9.026;2023-06-04T08:40:28;5.45;;;2.60;;
30149;SDS011;16962;48.646;9.026;2023-06-04T08:43:17;4.75;;;3.00;;
30149;SDS011;16962;48.646;9.026;2023-06-04T08:46:20;3.15;;;2.78;;
30149;SDS011;16962;48.646;9.026;2023-06-04T08:49:21;6.60;;;3.03;;
30149;SDS011;16962;48.646;9.026;2023-06-04T08:52:21;6.15;;;2.80;;
30149;SDS011;16962;48.646;9.026;2023-06-04T08:55:09;5.85;;;2.70;;
30149;SDS011;16962;48.646;9.026;2023-06-04T08:57:59;9.15;;;3.00;;
30149;SDS011;16962;48.646;9.026;2023-06-04T09:00:48;5.70;;;2.70;;
30149;SDS011;16962;48.646;9.026;2023-06-04T09:03:36;6.88;;;2.47;;
30149;SDS011;16962;48.646;9.026;2023-06-04T09:06:27;7.75;;;3.13;;
30149;SDS011;16962;48.646;9.026;2023-06-04T09:09:15;6.90;;;3.00;;
30149;SDS011;16962;48.646;9.026;2023-06-04T09:12:05;4.55;;;3.00;;
30149;SDS011;16962;48.646;9.026;2023-06-04T09:14:59;5.53;;;2.92;;
30149;SDS011;16962;48.646;9.026;2023-06-04T09:17:47;5.63;;;2.75;;
30149;SDS011;16962;48.646;9.026;2023-06-04T09:20:34;10.20;;;2.75;;
30149;SDS011;16962;48.646;9.026;2023-06-04T09:23:22;7.93;;;2.80;;
30149;SDS011;16962;48.646;9.026;2023-06-04T09:26:10;5.25;;;2.97;;
30149;SDS011;16962;48.646;9.026;2023-06-04T09:28:58;7.13;;;3.25;;
30149;SDS011;16962;48.646;9.026;2023-06-04T09:31:57;4.60;;;2.42;;
30149;SDS011;16962;48.646;9.026;2023-06-04T09:34:45;5.00;;;2.83;;
30149;SDS011;16962;48.646;9.026;2023-06-04T09:37:33;6.05;;;2.90;;
30149;SDS011;16962;48.646;9.026;2023-06-04T09:40:23;4.65;;;3.05;;
30149;SDS011;16962;48.646;9.026;2023-06-04T09:43:22;5.00;;;2.78;;
30149;SDS011;16962;48.646;9.026;2023-06-04T09:46:13;5.57;;;2.80;;
30149;SDS011;16962;48.646;9.026;2023-06-04T09:49:02;6.28;;;2.65;;
30149;SDS011;16962;48.646;9.026;2023-06-04T09:54:41;6.47;;;2.83;;
30149;SDS011;16962;48.646;9.026;2023-06-04T09:57:29;5.97;;;3.17;;
30149;SDS011;16962;48.646;9.026;2023-06-04T10:00:25;5.47;;;3.50;;
30149;SDS011;16962;48.646;9.026;2023-06-04T10:03:15;6.60;;;3.05;;
30149;SDS011;16962;48.646;9.026;2023-06-04T10:06:06;4.93;;;2.50;;
30149;SDS011;16962;48.646;9.026;2023-06-04T10:12:37;5.07;;;3.25;;
30149;SDS011;16962;48.646;9.026;2023-06-04T10:15:49;4.78;;;3.40;;
30149;SDS011;16962;48.646;9.026;2023-06-04T10:18:41;5.80;;;3.88;;
30149;SDS011;16962;48.646;9.026;2023-06-04T10:21:41;8.00;;;3.38;;
30149;SDS011;16962;48.646;9.026;2023-06-04T10:24:30;8.38;;;3.40;;
30149;SDS011;16962;48.646;9.026;2023-06-04T10:27:20;4.53;;;3.28;;
30149;SDS011;16962;48.646;9.026;2023-06-04T10:30:21;6.32;;;2.72;;
30149;SDS011;16962;48.646;9.026;2023-06-04T10:33:12;5.28;;;3.15;;
30149;SDS011;16962;48.646;9.026;2023-06-04T10:36:19;9.88;;;3.33;;
30149;SDS011;16962;48.646;9.026;2023-06-04T10:39:24;4.90;;;3.42;;
30149;SDS011;16962;48.646;9.026;2023-06-04T10:42:15;5.97;;;2.97;;
30149;SDS011;16962;48.646;9.026;2023-06-04T10:45:09;6.55;;;3.22;;
30149;SDS011;16962;48.646;9.026;2023-06-04T10:48:01;5.03;;;3.17;;
30149;SDS011;16962;48.646;9.026;2023-06-04T10:50:54;5.60;;;3.08;;
30149;SDS011;16962;48.646;9.026;2023-06-04T10:53:43;5.47;;;3.63;;
30149;SDS011;16962;48.646;9.026;2023-06-04T10:56:34;4.72;;;3.40;;
30149;SDS011;16962;48.646;9.026;2023-06-04T10:59:24;7.13;;;3.00;;
30149;SDS011;16962;48.646;9.026;2023-06-04T11:02:12;5.63;;;3.40;;
30149;SDS011;16962;48.646;9.026;2023-06-04T11:05:07;5.63;;;3.35;;
30149;SDS011;16962;48.646;9.026;2023-06-04T11:08:03;7.25;;;3.63;;
30149;SDS011;16962;48.646;9.026;2023-06-04T11:10:51;8.05;;;3.20;;
30149;SDS011;16962;48.646;9.026;2023-06-04T11:13:39;6.35;;;3.75;;
30149;SDS011;16962;48.646;9.026;2023-06-04T11:16:31;4.95;;;3.13;;
30149;SDS011;16962;48.646;9.026;2023-06-04T11:19:21;6.70;;;3.45;;
30149;SDS011;16962;48.646;9.026;2023-06-04T11:22:13;4.40;;;3.00;;
30149;SDS011;16962;48.646;9.026;2023-06-04T11:25:00;5.40;;;3.45;;
30149;SDS011;16962;48.646;9.026;2023-06-04T11:27:52;4.75;;;3.13;;
30149;SDS011;16962;48.646;9.026;2023-06-04T11:30:42;5.50;;;3.00;;
30149;SDS011;16962;48.646;9.026;2023-06-04T11:33:43;6.85;;;3.28;;
30149;SDS011;16962;48.646;9.026;2023-06-04T11:36:41;6.32;;;2.95;;
30149;SDS011;16962;48.646;9.026;2023-06-04T11:39:55;7.32;;;4.35;;
30149;SDS011;16962;48.646;9.026;2023-06-04T11:42:51;5.68;;;3.58;;
30149;SDS011;16962;48.646;9.026;2023-06-04T11:45:39;7.43;;;3.63;;
30149;SDS011;16962;48.646;9.026;2023-06-04T11:48:29;5.00;;;3.70;;
30149;SDS011;16962;48.646;9.026;2023-06-04T11:51:51;7.00;;;3.17;;
30149;SDS011;16962;48.646;9.026;2023-06-04T11:54:42;7.47;;;3.47;;
30149;SDS011;16962;48.646;9.026;2023-06-04T11:57:34;3.60;;;3.03;;
30149;SDS011;16962;48.646;9.026;2023-06-04T12:00:23;5.18;;;2.90;;
30149;SDS011;16962;48.646;9.026;2023-06-04T12:03:16;6.07;;;3.15;;
30149;SDS011;16962;48.646;9.026;2023-06-04T12:06:16;6.57;;;3.33;;
30149;SDS011;16962;48.646;9.026;2023-06-04T12:09:19;4.63;;;3.30;;
30149;SDS011;16962;48.646;9.026;2023-06-04T12:12:21;5.30;;;3.40;;
30149;SDS011;16962;48.646;9.026;2023-06-04T12:15:12;8.18;;;3.72;;
30149;SDS011;16962;48.646;9.026;2023-06-04T12:18:06;5.40;;;3.67;;
30149;SDS011;16962;48.646;9.026;2023-06-04T12:24:15;4.88;;;3.60;;
30149;SDS011;16962;48.646;9.026;2023-06-04T12:27:04;6.00;;;3.88;;
30149;SDS011;16962;48.646;9.026;2023-06-04T12:33:00;5.18;;;2.95;;
30149;SDS011;16962;48.646;9.026;2023-06-04T12:35:48;3.53;;;2.90;;
30149;SDS011;16962;48.646;9.026;2023-06-04T12:38:41;4.57;;;3.20;;
30149;SDS011;16962;48.646;9.026;2023-06-04T12:41:28;7.80;;;2.83;;
30149;SDS011;16962;48.646;9.026;2023-06-04T12:44:16;7.95;;;4.10;;
30149;SDS011;16962;48.646;9.026;2023-06-04T12:47:04;5.90;;;3.22;;
30149;SDS011;16962;48.646;9.026;2023-06-04T12:50:10;7.00;;;3.17;;
30149;SDS011;16962;48.646;9.026;2023-06-04T12:52:57;4.80;;;3.05;;
30149;SDS011;16962;48.646;9.026;2023-06-04T12:55:45;6.50;;;3.00;;
30149;SDS011;16962;48.646;9.026;2023-06-04T12:58:32;7.60;;;3.38;;
30149;SDS011;16962;48.646;9.026;2023-06-04T13:01:20;5.45;;;3.47;;
30149;SDS011;16962;48.646;9.026;2023-06-04T13:04:19;4.35;;;3.80;;
30149;SDS011;16962;48.646;9.026;2023-06-04T13:07:07;7.57;;;3.80;;
30149;SDS011;16962;48.646;9.026;2023-06-04T13:09:54;6.15;;;3.65;;
30149;SDS011;16962;48.646;9.026;2023-06-04T13:12:42;7.15;;;3.72;;
30149;SDS011;16962;48.646;9.026;2023-06-04T13:15:29;7.78;;;3.75;;
30149;SDS011;16962;48.646;9.026;2023-06-04T13:18:26;4.57;;;3.20;;
30149;SDS011;16962;48.646;9.026;2023-06-04T13:21:16;6.40;;;4.05;;
30149;SDS011;16962;48.646;9.026;2023-06-04T13:24:03;7.25;;;3.70;;
30149;SDS011;16962;48.646;9.026;2023-06-04T13:26:51;4.93;;;3.58;;
30149;SDS011;16962;48.646;9.026;2023-06-04T13:33:17;6.85;;;3.92;;
30149;SDS011;16962;48.646;9.026;2023-06-04T13:36:06;7.18;;;5.03;;
30149;SDS011;16962;48.646;9.026;2023-06-04T13:38:54;7.35;;;4.00;;
30149;SDS011;16962;48.646;9.026;2023-06-04T13:41:44;7.03;;;4.07;;
30149;SDS011;16962;48.646;9.026;2023-06-04T13:44:34;10.27;;;4.20;;
30149;SDS011;16962;48.646;9.026;2023-06-04T13:47:26;6.90;;;4.00;;
30149;SDS011;16962;48.646;9.026;2023-06-04T13:50:14;4.88;;;3.78;;
30149;SDS011;16962;48.646;9.026;2023-06-04T13:53:01;6.78;;;3.97;;
30149;SDS011;16962;48.646;9.026;2023-06-04T13:55:52;6.15;;;4.38;;
30149;SDS011;16962;48.646;9.026;2023-06-04T13:58:44;7.72;;;4.15;;
30149;SDS011;16962;48.646;9.026;2023-06-04T14:01:36;4.68;;;3.78;;
30149;SDS011;16962;48.646;9.026;2023-06-04T14:04:26;8.35;;;4.07;;
30149;SDS011;16962;48.646;9.026;2023-06-04T14:07:16;4.90;;;4.10;;
30149;SDS011;16962;48.646;9.026;2023-06-04T14:13:44;5.28;;;3.83;;
30149;SDS011;16962;48.646;9.026;2023-06-04T14:16:47;9.40;;;3.78;;
30149;SDS011;16962;48.646;9.026;2023-06-04T14:20:02;7.95;;;3.72;;
30149;SDS011;16962;48.646;9.026;2023-06-04T14:22:57;5.38;;;3.50;;
30149;SDS011;16962;48.646;9.026;2023-06-04T14:25:44;5.68;;;3.63;;
30149;SDS011;16962;48.646;9.026;2023-06-04T14:28:34;6.30;;;3.83;;
30149;SDS011;16962;48.646;9.026;2023-06-04T14:31:23;8.30;;;3.88;;
30149;SDS011;16962;48.646;9.026;2023-06-04T14:34:11;10.32;;;4.00;;
30149;SDS011;16962;48.646;9.026;2023-06-04T14:36:59;7.28;;;4.03;;
30149;SDS011;16962;48.646;9.026;2023-06-04T14:39:53;4.93;;;4.18;;
30149;SDS011;16962;48.646;9.026;2023-06-04T14:43:13;4.63;;;3.67;;
30149;SDS011;16962;48.646;9.026;2023-06-04T14:46:00;10.65;;;3.90;;
30149;SDS011;16962;48.646;9.026;2023-06-04T14:48:48;9.63;;;3.80;;
30149;SDS011;16962;48.646;9.026;2023-06-04T14:51:36;9.45;;;3.63;;
30149;SDS011;16962;48.646;9.026;2023-06-04T14:54:24;4.43;;;3.35;;
30149;SDS011;16962;48.646;9.026;2023-06-04T14:57:13;6.25;;;3.00;;
30149;SDS011;16962;48.646;9.026;2023-06-04T15:00:09;4.68;;;3.50;;
30149;SDS011;16962;48.646;9.026;2023-06-04T15:03:05;5.28;;;3.40;;
30149;SDS011;16962;48.646;9.026;2023-06-04T15:05:56;7.03;;;3.10;;
30149;SDS011;16962;48.646;9.026;2023-06-04T15:09:05;6.30;;;2.92;;
30149;SDS011;16962;48.646;9.026;2023-06-04T15:11:57;6.53;;;3.88;;
30149;SDS011;16962;48.646;9.026;2023-06-04T15:14:53;11.50;;;3.42;;
30149;SDS011;16962;48.646;9.026;2023-06-04T15:17:40;4.65;;;2.92;;
30149;SDS011;16962;48.646;9.026;2023-06-04T15:20:31;3.85;;;3.10;;
30149;SDS011;16962;48.646;9.026;2023-06-04T15:23:18;6.68;;;3.17;;
30149;SDS011;16962;48.646;9.026;2023-06-04T15:26:06;5.80;;;3.53;;
30149;SDS011;16962;48.646;9.026;2023-06-04T15:28:53;7.28;;;3.15;;
30149;SDS011;16962;48.646;9.026;2023-06-04T15:31:43;4.97;;;2.90;;
30149;SDS011;16962;48.646;9.026;2023-06-04T15:34:39;8.60;;;3.10;;
30149;SDS011;16962;48.646;9.026;2023-06-04T15:37:26;4.28;;;2.83;;
30149;SDS011;16962;48.646;9.026;2023-06-04T15:40:13;4.35;;;2.92;;
30149;SDS011;16962;48.646;9.026;2023-06-04T15:43:03;6.65;;;2.78;;
30149;SDS011;16962;48.646;9.026;2023-06-04T15:45:53;7.88;;;3.20;;
30149;SDS011;16962;48.646;9.026;2023-06-04T15:48:41;3.35;;;2.65;;
30149;SDS011;16962;48.646;9.026;2023-06-04T15:51:30;5.13;;;2.85;;
30149;SDS011;16962;48.646;9.026;2023-06-04T15:54:19;3.95;;;2.80;;
30149;SDS011;16962;48.646;9.026;2023-06-04T15:57:25;5.38;;;3.17;;
30149;SDS011;16962;48.646;9.026;2023-06-04T16:00:12;6.15;;;2.72;;
30149;SDS011;16962;48.646;9.026;2023-06-04T16:03:00;4.00;;;2.55;;
30149;SDS011;16962;48.646;9.026;2023-06-04T16:05:47;4.78;;;3.20;;
30149;SDS011;16962;48.646;9.026;2023-06-04T16:08:35;4.05;;;2.85;;
30149;SDS011;16962;48.646;9.026;2023-06-04T16:11:23;3.72;;;2.55;;
30149;SDS011;16962;48.646;9.026;2023-06-04T16:14:11;5.22;;;3.30;;
30149;SDS011;16962;48.646;9.026;2023-06-04T16:17:02;4.20;;;2.60;;
30149;SDS011;16962;48.646;9.026;2023-06-04T16:19:50;4.63;;;3.00;;
30149;SDS011;16962;48.646;9.026;2023-06-04T16:22:40;4.25;;;2.83;;
30149;SDS011;16962;48.646;9.026;2023-06-04T16:25:28;7.53;;;3.03;;
30149;SDS011;16962;48.646;9.026;2023-06-04T16:28:16;3.78;;;2.72;;
30149;SDS011;16962;48.646;9.026;2023-06-04T16:31:06;4.18;;;2.83;;
30149;SDS011;16962;48.646;9.026;2023-06-04T16:33:54;4.13;;;2.90;;
30149;SDS011;16962;48.646;9.026;2023-06-04T16:36:41;5.55;;;2.83;;
30149;SDS011;16962;48.646;9.026;2023-06-04T16:39:31;12.48;;;4.43;;
30149;SDS011;16962;48.646;9.026;2023-06-04T16:42:19;5.90;;;3.72;;
30149;SDS011;16962;48.646;9.026;2023-06-04T16:45:07;4.57;;;3.42;;
30149;SDS011;16962;48.646;9.026;2023-06-04T16:47:56;10.02;;;3.03;;
30149;SDS011;16962;48.646;9.026;2023-06-04T16:50:44;7.30;;;3.85;;
30149;SDS011;16962;48.646;9.026;2023-06-04T16:53:31;5.30;;;3.20;;
30149;SDS011;16962;48.646;9.026;2023-06-04T16:56:22;4.82;;;3.47;;
30149;SDS011;16962;48.646;9.026;2023-06-04T16:59:48;7.05;;;3.10;;
30149;SDS011;16962;48.646;9.026;2023-06-04T17:02:36;8.45;;;3.63;;
30149;SDS011;16962;48.646;9.026;2023-06-04T17:05:24;4.72;;;3.58;;
30149;SDS011;16962;48.646;9.026;2023-06-04T17:08:12;7.13;;;2.95;;
30149;SDS011;16962;48.646;9.026;2023-06-04T17:10:59;7.22;;;3.60;;
30149;SDS011;16962;48.646;9.026;2023-06-04T17:13:47;6.78;;;3.55;;
30149;SDS011;16962;48.646;9.026;2023-06-04T17:16:34;5.53;;;3.08;;
30149;SDS011;16962;48.646;9.026;2023-06-04T17:19:25;9.93;;;4.43;;
30149;SDS011;16962;48.646;9.026;2023-06-04T17:22:12;8.57;;;4.00;;
30149;SDS011;16962;48.646;9.026;2023-06-04T17:25:10;6.75;;;3.40;;